sensor_id;sensor_type;location;lat;lon;timestamp;P1;durP1;ratioP1;P2;durP2;ratioP2
4460;SDS011;2243;48.812;9.232;2023-06-14T00:02:14;6.60;;;5.60;;
4460;SDS011;2243;48.812;9.232;2023-06-14T00:04:46;6.30;;;5.70;;
4460;SDS011;2243;48.812;9.232;2023-06-14T00:07:20;9.50;;;5.90;;
4460;SDS011;2243;48.812;9.232;2023-06-14T00:10:14;6.00;;;5.60;;
4460;SDS011;2243;48.812;9.232;2023-06-14T00:12:46;8.07;;;5.53;;
4460;SDS011;2243;48.812;9.232;2023-06-14T00:15:17;7.83;;;6.07;;
4460;SDS011;2243;48.812;9.232;2023-06-14T00:17:47;5.50;;;5.00;;
4460;SDS011;2243;48.812;9.232;2023-06-14T00:20:19;5.80;;;5.30;;
4460;SDS011;2243;48.812;9.232;2023-06-14T00:22:49;8.13;;;6.63;;
4460;SDS011;2243;48.812;9.232;2023-06-14T00:25:23;5.57;;;5.17;;
4460;SDS011;2243;48.812;9.232;2023-06-14T00:27:59;7.03;;;5.90;;
4460;SDS011;2243;48.812;9.232;2023-06-14T00:30:30;6.53;;;5.37;;
4460;SDS011;2243;48.812;9.232;2023-06-14T00:33:01;8.33;;;5.40;;
4460;SDS011;2243;48.812;9.232;2023-06-14T00:35:32;6.07;;;5.43;;
4460;SDS011;2243;48.812;9.232;2023-06-14T00:38:03;10.07;;;6.40;;
4460;SDS011;2243;48.812;9.232;2023-06-14T00:40:34;5.40;;;4.90;;
4460;SDS011;2243;48.812;9.232;2023-06-14T00:43:05;6.80;;;5.13;;
4460;SDS011;2243;48.812;9.232;2023-06-14T00:45:36;5.93;;;5.30;;
4460;SDS011;2243;48.812;9.232;2023-06-14T00:48:07;6.63;;;6.07;;
4460;SDS011;2243;48.812;9.232;2023-06-14T00:50:39;7.50;;;6.33;;
4460;SDS011;2243;48.812;9.232;2023-06-14T00:53:14;11.90;;;6.63;;
4460;SDS011;2243;48.812;9.232;2023-06-14T00:55:47;8.17;;;6.47;;
4460;SDS011;2243;48.812;9.232;2023-06-14T00:58:19;7.73;;;5.37;;
4460;SDS011;2243;48.812;9.232;2023-06-14T01:00:52;6.27;;;5.67;;
4460;SDS011;2243;48.812;9.232;2023-06-14T01:03:23;6.73;;;6.00;;
4460;SDS011;2243;48.812;9.232;2023-06-14T01:05:58;6.53;;;5.77;;
4460;SDS011;2243;48.812;9.232;2023-06-14T01:08:47;8.30;;;5.90;;
4460;SDS011;2243;48.812;9.232;2023-06-14T01:11:38;5.70;;;5.30;;
4460;SDS011;2243;48.812;9.232;2023-06-14T01:14:49;5.90;;;5.40;;
4460;SDS011;2243;48.812;9.232;2023-06-14T01:17:22;6.43;;;5.80;;
4460;SDS011;2243;48.812;9.232;2023-06-14T01:19:54;6.73;;;6.13;;
4460;SDS011;2243;48.812;9.232;2023-06-14T01:22:28;8.43;;;6.20;;
4460;SDS011;2243;48.812;9.232;2023-06-14T01:24:59;6.33;;;5.83;;
4460;SDS011;2243;48.812;9.232;2023-06-14T01:27:30;7.23;;;6.50;;
4460;SDS011;2243;48.812;9.232;2023-06-14T01:30:02;6.07;;;5.40;;
4460;SDS011;2243;48.812;9.232;2023-06-14T01:32:35;6.90;;;6.30;;
4460;SDS011;2243;48.812;9.232;2023-06-14T01:35:07;8.17;;;6.40;;
4460;SDS011;2243;48.812;9.232;2023-06-14T01:37:39;8.23;;;6.47;;
4460;SDS011;2243;48.812;9.232;2023-06-14T01:40:12;6.67;;;6.17;;
4460;SDS011;2243;48.812;9.232;2023-06-14T01:42:46;6.83;;;6.23;;
4460;SDS011;2243;48.812;9.232;2023-06-14T01:45:19;6.53;;;6.00;;
4460;SDS011;2243;48.812;9.232;2023-06-14T01:47:52;6.67;;;5.97;;
4460;SDS011;2243;48.812;9.232;2023-06-14T01:50:23;7.20;;;6.60;;
4460;SDS011;2243;48.812;9.232;2023-06-14T01:53:00;6.60;;;5.90;;
4460;SDS011;2243;48.812;9.232;2023-06-14T01:55:31;7.00;;;6.30;;
4460;SDS011;2243;48.812;9.232;2023-06-14T01:58:07;9.33;;;7.13;;
4460;SDS011;2243;48.812;9.232;2023-06-14T02:00:38;7.03;;;6.37;;
4460;SDS011;2243;48.812;9.232;2023-06-14T02:03:09;6.67;;;5.90;;
4460;SDS011;2243;48.812;9.232;2023-06-14T02:05:42;8.03;;;6.60;;
4460;SDS011;2243;48.812;9.232;2023-06-14T02:08:13;6.50;;;5.90;;
4460;SDS011;2243;48.812;9.232;2023-06-14T02:10:44;6.90;;;6.20;;
4460;SDS011;2243;48.812;9.232;2023-06-14T02:13:15;6.50;;;5.90;;
4460;SDS011;2243;48.812;9.232;2023-06-14T02:15:46;6.70;;;6.10;;
4460;SDS011;2243;48.812;9.232;2023-06-14T02:18:21;10.63;;;6.67;;
4460;SDS011;2243;48.812;9.232;2023-06-14T02:20:53;6.70;;;6.10;;
4460;SDS011;2243;48.812;9.232;2023-06-14T02:23:24;7.30;;;6.60;;
4460;SDS011;2243;48.812;9.232;2023-06-14T02:25:55;9.23;;;6.50;;
4460;SDS011;2243;48.812;9.232;2023-06-14T02:28:26;13.10;;;6.63;;
4460;SDS011;2243;48.812;9.232;2023-06-14T02:30:57;8.97;;;6.63;;
4460;SDS011;2243;48.812;9.232;2023-06-14T02:33:28;8.17;;;6.27;;
4460;SDS011;2243;48.812;9.232;2023-06-14T02:36:00;7.10;;;6.40;;
4460;SDS011;2243;48.812;9.232;2023-06-14T02:38:33;8.63;;;7.57;;
4460;SDS011;2243;48.812;9.232;2023-06-14T02:41:04;6.90;;;6.30;;
4460;SDS011;2243;48.812;9.232;2023-06-14T02:43:36;7.20;;;5.70;;
4460;SDS011;2243;48.812;9.232;2023-06-14T02:46:08;7.77;;;7.03;;
4460;SDS011;2243;48.812;9.232;2023-06-14T02:48:39;7.50;;;6.20;;
4460;SDS011;2243;48.812;9.232;2023-06-14T02:51:10;7.40;;;6.80;;
4460;SDS011;2243;48.812;9.232;2023-06-14T02:53:42;12.67;;;6.83;;
4460;SDS011;2243;48.812;9.232;2023-06-14T02:56:13;12.00;;;6.80;;
4460;SDS011;2243;48.812;9.232;2023-06-14T02:58:47;7.17;;;6.57;;
4460;SDS011;2243;48.812;9.232;2023-06-14T03:01:19;10.90;;;6.90;;
4460;SDS011;2243;48.812;9.232;2023-06-14T03:03:51;6.70;;;6.07;;
4460;SDS011;2243;48.812;9.232;2023-06-14T03:06:22;7.63;;;6.20;;
4460;SDS011;2243;48.812;9.232;2023-06-14T03:08:55;6.67;;;6.17;;
4460;SDS011;2243;48.812;9.232;2023-06-14T03:11:36;9.27;;;6.10;;
4460;SDS011;2243;48.812;9.232;2023-06-14T03:14:07;6.80;;;6.20;;
4460;SDS011;2243;48.812;9.232;2023-06-14T03:16:38;6.83;;;6.23;;
4460;SDS011;2243;48.812;9.232;2023-06-14T03:19:11;8.37;;;7.30;;
4460;SDS011;2243;48.812;9.232;2023-06-14T03:21:42;7.50;;;6.80;;
4460;SDS011;2243;48.812;9.232;2023-06-14T03:24:15;7.17;;;6.43;;
4460;SDS011;2243;48.812;9.232;2023-06-14T03:26:49;7.40;;;6.60;;
4460;SDS011;2243;48.812;9.232;2023-06-14T03:29:20;6.67;;;6.10;;
4460;SDS011;2243;48.812;9.232;2023-06-14T03:32:02;7.30;;;6.67;;
4460;SDS011;2243;48.812;9.232;2023-06-14T03:34:34;7.23;;;6.53;;
4460;SDS011;2243;48.812;9.232;2023-06-14T03:37:05;9.40;;;7.10;;
4460;SDS011;2243;48.812;9.232;2023-06-14T03:39:36;8.50;;;7.43;;
4460;SDS011;2243;48.812;9.232;2023-06-14T03:42:07;15.93;;;7.73;;
4460;SDS011;2243;48.812;9.232;2023-06-14T03:44:38;7.57;;;6.67;;
4460;SDS011;2243;48.812;9.232;2023-06-14T03:47:10;8.97;;;6.63;;
4460;SDS011;2243;48.812;9.232;2023-06-14T03:49:41;7.70;;;6.27;;
4460;SDS011;2243;48.812;9.232;2023-06-14T03:52:12;6.93;;;6.20;;
4460;SDS011;2243;48.812;9.232;2023-06-14T03:54:44;8.07;;;7.33;;
4460;SDS011;2243;48.812;9.232;2023-06-14T03:57:19;9.20;;;7.00;;
4460;SDS011;2243;48.812;9.232;2023-06-14T03:59:50;8.43;;;7.10;;
4460;SDS011;2243;48.812;9.232;2023-06-14T04:02:21;7.90;;;6.77;;
4460;SDS011;2243;48.812;9.232;2023-06-14T04:04:52;7.17;;;6.17;;
4460;SDS011;2243;48.812;9.232;2023-06-14T04:07:24;5.97;;;4.80;;
4460;SDS011;2243;48.812;9.232;2023-06-14T04:09:58;7.60;;;6.70;;
4460;SDS011;2243;48.812;9.232;2023-06-14T04:12:29;7.33;;;6.23;;
4460;SDS011;2243;48.812;9.232;2023-06-14T04:15:00;7.40;;;5.67;;
4460;SDS011;2243;48.812;9.232;2023-06-14T04:17:49;8.83;;;6.47;;
4460;SDS011;2243;48.812;9.232;2023-06-14T04:20:21;9.90;;;6.80;;
4460;SDS011;2243;48.812;9.232;2023-06-14T04:22:52;7.37;;;6.70;;
4460;SDS011;2243;48.812;9.232;2023-06-14T04:25:23;9.67;;;7.07;;
4460;SDS011;2243;48.812;9.232;2023-06-14T04:27:56;8.10;;;7.13;;
4460;SDS011;2243;48.812;9.232;2023-06-14T04:30:27;8.33;;;6.93;;
4460;SDS011;2243;48.812;9.232;2023-06-14T04:33:01;7.13;;;6.50;;
4460;SDS011;2243;48.812;9.232;2023-06-14T04:35:36;8.23;;;7.43;;
4460;SDS011;2243;48.812;9.232;2023-06-14T04:38:07;7.47;;;6.40;;
4460;SDS011;2243;48.812;9.232;2023-06-14T04:40:39;8.77;;;7.07;;
4460;SDS011;2243;48.812;9.232;2023-06-14T04:43:12;7.60;;;6.80;;
4460;SDS011;2243;48.812;9.232;2023-06-14T04:45:47;7.97;;;6.73;;
4460;SDS011;2243;48.812;9.232;2023-06-14T04:48:19;7.80;;;7.10;;
4460;SDS011;2243;48.812;9.232;2023-06-14T04:50:51;8.70;;;6.77;;
4460;SDS011;2243;48.812;9.232;2023-06-14T04:53:23;11.17;;;6.90;;
4460;SDS011;2243;48.812;9.232;2023-06-14T04:55:54;6.53;;;5.97;;
4460;SDS011;2243;48.812;9.232;2023-06-14T04:58:25;7.20;;;6.50;;
4460;SDS011;2243;48.812;9.232;2023-06-14T05:00:56;8.03;;;6.53;;
4460;SDS011;2243;48.812;9.232;2023-06-14T05:03:27;14.30;;;7.57;;
4460;SDS011;2243;48.812;9.232;2023-06-14T05:06:01;7.27;;;6.57;;
4460;SDS011;2243;48.812;9.232;2023-06-14T05:08:32;9.60;;;6.83;;
4460;SDS011;2243;48.812;9.232;2023-06-14T05:11:03;7.33;;;6.60;;
4460;SDS011;2243;48.812;9.232;2023-06-14T05:13:34;8.47;;;7.57;;
4460;SDS011;2243;48.812;9.232;2023-06-14T05:16:05;7.77;;;7.00;;
4460;SDS011;2243;48.812;9.232;2023-06-14T05:18:37;8.53;;;7.10;;
4460;SDS011;2243;48.812;9.232;2023-06-14T05:21:08;8.87;;;7.57;;
4460;SDS011;2243;48.812;9.232;2023-06-14T05:23:39;9.20;;;7.23;;
4460;SDS011;2243;48.812;9.232;2023-06-14T05:26:10;8.43;;;7.53;;
4460;SDS011;2243;48.812;9.232;2023-06-14T05:28:41;10.90;;;8.10;;
4460;SDS011;2243;48.812;9.232;2023-06-14T05:31:12;10.40;;;7.90;;
4460;SDS011;2243;48.812;9.232;2023-06-14T05:33:43;9.50;;;8.17;;
4460;SDS011;2243;48.812;9.232;2023-06-14T05:36:14;7.83;;;7.03;;
4460;SDS011;2243;48.812;9.232;2023-06-14T05:38:45;10.50;;;7.77;;
4460;SDS011;2243;48.812;9.232;2023-06-14T05:41:17;8.87;;;7.37;;
4460;SDS011;2243;48.812;9.232;2023-06-14T05:43:48;9.07;;;7.20;;
4460;SDS011;2243;48.812;9.232;2023-06-14T05:46:19;8.60;;;7.70;;
4460;SDS011;2243;48.812;9.232;2023-06-14T05:48:52;11.40;;;8.00;;
4460;SDS011;2243;48.812;9.232;2023-06-14T05:51:25;11.00;;;8.60;;
4460;SDS011;2243;48.812;9.232;2023-06-14T05:53:57;8.90;;;8.00;;
4460;SDS011;2243;48.812;9.232;2023-06-14T05:56:28;9.53;;;7.83;;
4460;SDS011;2243;48.812;9.232;2023-06-14T05:58:59;8.37;;;7.60;;
4460;SDS011;2243;48.812;9.232;2023-06-14T06:01:30;10.70;;;8.17;;
4460;SDS011;2243;48.812;9.232;2023-06-14T06:04:03;8.33;;;7.50;;
4460;SDS011;2243;48.812;9.232;2023-06-14T06:06:34;11.70;;;8.13;;
4460;SDS011;2243;48.812;9.232;2023-06-14T06:09:06;8.93;;;8.03;;
4460;SDS011;2243;48.812;9.232;2023-06-14T06:11:37;8.73;;;6.47;;
4460;SDS011;2243;48.812;9.232;2023-06-14T06:14:22;8.93;;;6.90;;
4460;SDS011;2243;48.812;9.232;2023-06-14T06:16:53;7.27;;;6.63;;
4460;SDS011;2243;48.812;9.232;2023-06-14T06:19:25;7.40;;;6.70;;
4460;SDS011;2243;48.812;9.232;2023-06-14T06:21:56;7.43;;;6.73;;
4460;SDS011;2243;48.812;9.232;2023-06-14T06:24:26;10.63;;;7.20;;
4460;SDS011;2243;48.812;9.232;2023-06-14T06:26:58;7.67;;;6.80;;
4460;SDS011;2243;48.812;9.232;2023-06-14T06:29:29;6.80;;;6.20;;
4460;SDS011;2243;48.812;9.232;2023-06-14T06:32:00;9.43;;;6.03;;
4460;SDS011;2243;48.812;9.232;2023-06-14T06:34:31;9.83;;;6.53;;
4460;SDS011;2243;48.812;9.232;2023-06-14T06:37:02;9.63;;;7.30;;
4460;SDS011;2243;48.812;9.232;2023-06-14T06:39:33;7.43;;;6.80;;
4460;SDS011;2243;48.812;9.232;2023-06-14T06:42:05;6.60;;;5.97;;
4460;SDS011;2243;48.812;9.232;2023-06-14T06:44:36;7.33;;;6.60;;
4460;SDS011;2243;48.812;9.232;2023-06-14T06:47:07;7.80;;;7.00;;
4460;SDS011;2243;48.812;9.232;2023-06-14T06:49:40;7.57;;;6.27;;
4460;SDS011;2243;48.812;9.232;2023-06-14T06:52:10;6.63;;;5.87;;
4460;SDS011;2243;48.812;9.232;2023-06-14T06:54:41;7.50;;;6.40;;
4460;SDS011;2243;48.812;9.232;2023-06-14T06:57:12;7.43;;;6.43;;
4460;SDS011;2243;48.812;9.232;2023-06-14T06:59:44;8.80;;;6.43;;
4460;SDS011;2243;48.812;9.232;2023-06-14T07:02:15;7.73;;;6.03;;
4460;SDS011;2243;48.812;9.232;2023-06-14T07:04:47;11.43;;;6.47;;
4460;SDS011;2243;48.812;9.232;2023-06-14T07:07:18;6.53;;;6.03;;
4460;SDS011;2243;48.812;9.232;2023-06-14T07:09:49;7.97;;;7.17;;
4460;SDS011;2243;48.812;9.232;2023-06-14T07:12:20;6.67;;;5.93;;
4460;SDS011;2243;48.812;9.232;2023-06-14T07:14:52;11.63;;;5.60;;
4460;SDS011;2243;48.812;9.232;2023-06-14T07:17:23;8.90;;;6.20;;
4460;SDS011;2243;48.812;9.232;2023-06-14T07:19:54;8.03;;;6.67;;
4460;SDS011;2243;48.812;9.232;2023-06-14T07:22:25;6.67;;;5.87;;
4460;SDS011;2243;48.812;9.232;2023-06-14T07:24:56;7.63;;;5.30;;
4460;SDS011;2243;48.812;9.232;2023-06-14T07:27:27;6.80;;;5.43;;
4460;SDS011;2243;48.812;9.232;2023-06-14T07:29:57;6.70;;;6.00;;
4460;SDS011;2243;48.812;9.232;2023-06-14T07:32:28;9.23;;;5.17;;
4460;SDS011;2243;48.812;9.232;2023-06-14T07:34:59;6.20;;;5.70;;
4460;SDS011;2243;48.812;9.232;2023-06-14T07:37:30;8.10;;;6.80;;
4460;SDS011;2243;48.812;9.232;2023-06-14T07:40:01;7.23;;;6.53;;
4460;SDS011;2243;48.812;9.232;2023-06-14T07:42:37;6.93;;;6.23;;
4460;SDS011;2243;48.812;9.232;2023-06-14T07:45:08;7.27;;;6.67;;
4460;SDS011;2243;48.812;9.232;2023-06-14T07:47:40;7.57;;;6.80;;
4460;SDS011;2243;48.812;9.232;2023-06-14T07:50:11;6.30;;;5.80;;
4460;SDS011;2243;48.812;9.232;2023-06-14T07:52:43;7.23;;;6.50;;
4460;SDS011;2243;48.812;9.232;2023-06-14T07:55:15;9.83;;;6.87;;
4460;SDS011;2243;48.812;9.232;2023-06-14T07:57:46;11.00;;;7.00;;
4460;SDS011;2243;48.812;9.232;2023-06-14T08:00:18;7.13;;;5.80;;
4460;SDS011;2243;48.812;9.232;2023-06-14T08:02:50;6.30;;;5.80;;
4460;SDS011;2243;48.812;9.232;2023-06-14T08:05:28;7.00;;;6.30;;
4460;SDS011;2243;48.812;9.232;2023-06-14T08:07:59;6.10;;;5.60;;
4460;SDS011;2243;48.812;9.232;2023-06-14T08:10:30;8.37;;;6.40;;
4460;SDS011;2243;48.812;9.232;2023-06-14T08:13:01;7.63;;;6.40;;
4460;SDS011;2243;48.812;9.232;2023-06-14T08:15:32;6.60;;;5.90;;
4460;SDS011;2243;48.812;9.232;2023-06-14T08:18:03;9.43;;;5.77;;
4460;SDS011;2243;48.812;9.232;2023-06-14T08:20:35;8.00;;;6.20;;
4460;SDS011;2243;48.812;9.232;2023-06-14T08:23:06;5.80;;;5.40;;
4460;SDS011;2243;48.812;9.232;2023-06-14T08:25:38;6.70;;;6.10;;
4460;SDS011;2243;48.812;9.232;2023-06-14T08:28:09;9.03;;;5.90;;
4460;SDS011;2243;48.812;9.232;2023-06-14T08:30:40;9.07;;;6.20;;
4460;SDS011;2243;48.812;9.232;2023-06-14T08:33:13;8.73;;;6.03;;
4460;SDS011;2243;48.812;9.232;2023-06-14T08:35:46;8.33;;;6.20;;
4460;SDS011;2243;48.812;9.232;2023-06-14T08:38:18;6.93;;;5.53;;
4460;SDS011;2243;48.812;9.232;2023-06-14T08:40:50;6.67;;;5.90;;
4460;SDS011;2243;48.812;9.232;2023-06-14T08:43:21;8.00;;;6.47;;
4460;SDS011;2243;48.812;9.232;2023-06-14T08:45:53;6.63;;;6.03;;
4460;SDS011;2243;48.812;9.232;2023-06-14T08:48:38;6.87;;;6.27;;
4460;SDS011;2243;48.812;9.232;2023-06-14T08:51:10;6.73;;;6.00;;
4460;SDS011;2243;48.812;9.232;2023-06-14T08:53:42;11.33;;;5.20;;
4460;SDS011;2243;48.812;9.232;2023-06-14T08:56:14;7.50;;;5.90;;
4460;SDS011;2243;48.812;9.232;2023-06-14T08:58:45;6.87;;;6.17;;
4460;SDS011;2243;48.812;9.232;2023-06-14T09:01:18;6.70;;;6.20;;
4460;SDS011;2243;48.812;9.232;2023-06-14T09:03:51;8.90;;;5.63;;
4460;SDS011;2243;48.812;9.232;2023-06-14T09:06:25;8.07;;;5.27;;
4460;SDS011;2243;48.812;9.232;2023-06-14T09:08:58;5.43;;;4.93;;
4460;SDS011;2243;48.812;9.232;2023-06-14T09:11:30;5.97;;;5.40;;
4460;SDS011;2243;48.812;9.232;2023-06-14T09:14:01;5.40;;;5.10;;
4460;SDS011;2243;48.812;9.232;2023-06-14T09:16:32;5.60;;;5.20;;
4460;SDS011;2243;48.812;9.232;2023-06-14T09:19:03;9.20;;;5.60;;
4460;SDS011;2243;48.812;9.232;2023-06-14T09:21:35;10.10;;;5.90;;
4460;SDS011;2243;48.812;9.232;2023-06-14T09:24:12;11.70;;;5.33;;
4460;SDS011;2243;48.812;9.232;2023-06-14T09:26:47;12.87;;;5.73;;
4460;SDS011;2243;48.812;9.232;2023-06-14T09:29:19;6.50;;;5.87;;
4460;SDS011;2243;48.812;9.232;2023-06-14T09:31:50;6.13;;;5.53;;
4460;SDS011;2243;48.812;9.232;2023-06-14T09:34:21;9.27;;;5.43;;
4460;SDS011;2243;48.812;9.232;2023-06-14T09:36:53;5.93;;;5.50;;
4460;SDS011;2243;48.812;9.232;2023-06-14T09:39:24;6.93;;;5.37;;
4460;SDS011;2243;48.812;9.232;2023-06-14T09:41:55;6.80;;;6.10;;
4460;SDS011;2243;48.812;9.232;2023-06-14T09:44:26;6.60;;;6.10;;
4460;SDS011;2243;48.812;9.232;2023-06-14T09:46:58;8.17;;;4.63;;
4460;SDS011;2243;48.812;9.232;2023-06-14T09:49:29;6.57;;;5.30;;
4460;SDS011;2243;48.812;9.232;2023-06-14T09:52:03;6.03;;;5.00;;
4460;SDS011;2243;48.812;9.232;2023-06-14T09:54:37;7.73;;;5.17;;
4460;SDS011;2243;48.812;9.232;2023-06-14T09:57:14;6.60;;;5.30;;
4460;SDS011;2243;48.812;9.232;2023-06-14T09:59:47;6.67;;;5.00;;
4460;SDS011;2243;48.812;9.232;2023-06-14T10:02:24;4.87;;;4.57;;
4460;SDS011;2243;48.812;9.232;2023-06-14T10:05:07;6.10;;;5.60;;
4460;SDS011;2243;48.812;9.232;2023-06-14T10:07:42;5.27;;;4.87;;
4460;SDS011;2243;48.812;9.232;2023-06-14T10:10:30;5.40;;;4.90;;
4460;SDS011;2243;48.812;9.232;2023-06-14T10:13:01;5.87;;;5.37;;
4460;SDS011;2243;48.812;9.232;2023-06-14T10:15:34;5.17;;;4.50;;
4460;SDS011;2243;48.812;9.232;2023-06-14T10:18:36;5.63;;;5.10;;
4460;SDS011;2243;48.812;9.232;2023-06-14T10:24:40;5.30;;;4.80;;
4460;SDS011;2243;48.812;9.232;2023-06-14T10:27:13;5.23;;;4.73;;
4460;SDS011;2243;48.812;9.232;2023-06-14T10:32:25;9.00;;;5.53;;
4460;SDS011;2243;48.812;9.232;2023-06-14T10:35:00;4.93;;;4.57;;
4460;SDS011;2243;48.812;9.232;2023-06-14T10:37:37;6.90;;;5.37;;
4460;SDS011;2243;48.812;9.232;2023-06-14T10:40:08;5.83;;;5.30;;
4460;SDS011;2243;48.812;9.232;2023-06-14T10:43:20;6.80;;;5.30;;
4460;SDS011;2243;48.812;9.232;2023-06-14T10:48:49;5.60;;;5.10;;
4460;SDS011;2243;48.812;9.232;2023-06-14T10:51:29;6.60;;;6.00;;
4460;SDS011;2243;48.812;9.232;2023-06-14T10:54:16;5.63;;;5.10;;
4460;SDS011;2243;48.812;9.232;2023-06-14T10:56:48;6.93;;;4.93;;
4460;SDS011;2243;48.812;9.232;2023-06-14T10:59:23;6.13;;;4.63;;
4460;SDS011;2243;48.812;9.232;2023-06-14T11:01:58;4.90;;;4.50;;
4460;SDS011;2243;48.812;9.232;2023-06-14T11:04:50;9.53;;;5.40;;
4460;SDS011;2243;48.812;9.232;2023-06-14T11:10:47;4.90;;;4.60;;
4460;SDS011;2243;48.812;9.232;2023-06-14T11:13:13;9.00;;;5.73;;
4460;SDS011;2243;48.812;9.232;2023-06-14T11:15:47;6.20;;;5.57;;
4460;SDS011;2243;48.812;9.232;2023-06-14T11:18:18;5.67;;;5.17;;
4460;SDS011;2243;48.812;9.232;2023-06-14T11:20:49;5.80;;;5.30;;
4460;SDS011;2243;48.812;9.232;2023-06-14T11:23:21;14.10;;;6.00;;
4460;SDS011;2243;48.812;9.232;2023-06-14T11:25:53;5.10;;;4.60;;
4460;SDS011;2243;48.812;9.232;2023-06-14T11:28:39;5.03;;;4.70;;
4460;SDS011;2243;48.812;9.232;2023-06-14T11:31:11;7.13;;;4.80;;
4460;SDS011;2243;48.812;9.232;2023-06-14T11:33:42;4.93;;;4.47;;
4460;SDS011;2243;48.812;9.232;2023-06-14T11:36:13;4.77;;;4.00;;
4460;SDS011;2243;48.812;9.232;2023-06-14T11:38:44;4.00;;;3.70;;
4460;SDS011;2243;48.812;9.232;2023-06-14T11:41:15;4.03;;;3.70;;
4460;SDS011;2243;48.812;9.232;2023-06-14T11:43:45;4.35;;;4.05;;
4460;SDS011;2243;48.812;9.232;2023-06-14T11:46:16;5.30;;;4.90;;
4460;SDS011;2243;48.812;9.232;2023-06-14T11:48:52;5.20;;;4.20;;
4460;SDS011;2243;48.812;9.232;2023-06-14T11:51:23;4.60;;;4.20;;
4460;SDS011;2243;48.812;9.232;2023-06-14T11:53:55;4.30;;;4.10;;
4460;SDS011;2243;48.812;9.232;2023-06-14T11:56:26;9.67;;;4.10;;
4460;SDS011;2243;48.812;9.232;2023-06-14T11:58:57;4.53;;;4.20;;
4460;SDS011;2243;48.812;9.232;2023-06-14T12:01:29;4.90;;;4.50;;
4460;SDS011;2243;48.812;9.232;2023-06-14T12:04:02;5.83;;;4.70;;
4460;SDS011;2243;48.812;9.232;2023-06-14T12:06:34;6.70;;;4.40;;
4460;SDS011;2243;48.812;9.232;2023-06-14T12:09:10;5.53;;;4.40;;
4460;SDS011;2243;48.812;9.232;2023-06-14T12:11:44;4.57;;;4.27;;
4460;SDS011;2243;48.812;9.232;2023-06-14T12:14:15;4.70;;;4.40;;
4460;SDS011;2243;48.812;9.232;2023-06-14T12:16:47;4.40;;;4.10;;
4460;SDS011;2243;48.812;9.232;2023-06-14T12:19:18;7.10;;;4.30;;
4460;SDS011;2243;48.812;9.232;2023-06-14T12:21:49;4.37;;;3.80;;
4460;SDS011;2243;48.812;9.232;2023-06-14T12:24:21;5.20;;;4.10;;
4460;SDS011;2243;48.812;9.232;2023-06-14T12:26:59;4.90;;;4.60;;
4460;SDS011;2243;48.812;9.232;2023-06-14T12:29:33;5.57;;;5.07;;
4460;SDS011;2243;48.812;9.232;2023-06-14T12:32:04;4.47;;;4.10;;
4460;SDS011;2243;48.812;9.232;2023-06-14T12:34:35;7.03;;;4.10;;
4460;SDS011;2243;48.812;9.232;2023-06-14T12:37:07;5.00;;;4.60;;
4460;SDS011;2243;48.812;9.232;2023-06-14T12:39:37;4.67;;;4.27;;
4460;SDS011;2243;48.812;9.232;2023-06-14T12:42:09;4.67;;;4.33;;
4460;SDS011;2243;48.812;9.232;2023-06-14T12:44:40;10.33;;;5.10;;
4460;SDS011;2243;48.812;9.232;2023-06-14T12:47:12;6.77;;;4.03;;
4460;SDS011;2243;48.812;9.232;2023-06-14T12:49:44;4.70;;;4.40;;
4460;SDS011;2243;48.812;9.232;2023-06-14T12:52:14;6.50;;;4.90;;
4460;SDS011;2243;48.812;9.232;2023-06-14T12:54:45;6.07;;;4.70;;
4460;SDS011;2243;48.812;9.232;2023-06-14T12:57:16;5.53;;;4.50;;
4460;SDS011;2243;48.812;9.232;2023-06-14T12:59:47;9.03;;;4.27;;
4460;SDS011;2243;48.812;9.232;2023-06-14T13:02:19;5.13;;;4.40;;
4460;SDS011;2243;48.812;9.232;2023-06-14T13:04:55;5.33;;;4.67;;
4460;SDS011;2243;48.812;9.232;2023-06-14T13:07:28;4.60;;;4.20;;
4460;SDS011;2243;48.812;9.232;2023-06-14T13:09:59;4.47;;;4.27;;
4460;SDS011;2243;48.812;9.232;2023-06-14T13:12:30;5.57;;;4.37;;
4460;SDS011;2243;48.812;9.232;2023-06-14T13:15:01;5.00;;;4.43;;
4460;SDS011;2243;48.812;9.232;2023-06-14T13:17:32;6.40;;;4.37;;
4460;SDS011;2243;48.812;9.232;2023-06-14T13:20:08;4.53;;;4.20;;
4460;SDS011;2243;48.812;9.232;2023-06-14T13:22:40;4.60;;;4.20;;
4460;SDS011;2243;48.812;9.232;2023-06-14T13:25:11;7.20;;;4.60;;
4460;SDS011;2243;48.812;9.232;2023-06-14T13:27:42;4.37;;;3.97;;
4460;SDS011;2243;48.812;9.232;2023-06-14T13:30:12;4.97;;;4.50;;
4460;SDS011;2243;48.812;9.232;2023-06-14T13:32:45;5.67;;;4.13;;
4460;SDS011;2243;48.812;9.232;2023-06-14T13:35:20;6.30;;;4.50;;
4460;SDS011;2243;48.812;9.232;2023-06-14T13:37:51;4.30;;;4.00;;
4460;SDS011;2243;48.812;9.232;2023-06-14T13:40:22;6.07;;;4.60;;
4460;SDS011;2243;48.812;9.232;2023-06-14T13:42:53;6.37;;;5.07;;
4460;SDS011;2243;48.812;9.232;2023-06-14T13:45:24;4.43;;;4.17;;
4460;SDS011;2243;48.812;9.232;2023-06-14T13:47:55;4.37;;;4.10;;
4460;SDS011;2243;48.812;9.232;2023-06-14T13:50:26;6.73;;;4.87;;
4460;SDS011;2243;48.812;9.232;2023-06-14T13:52:57;6.20;;;5.10;;
4460;SDS011;2243;48.812;9.232;2023-06-14T13:55:28;5.00;;;4.60;;
4460;SDS011;2243;48.812;9.232;2023-06-14T13:57:59;4.50;;;4.20;;
4460;SDS011;2243;48.812;9.232;2023-06-14T14:00:30;9.23;;;4.57;;
4460;SDS011;2243;48.812;9.232;2023-06-14T14:03:02;4.60;;;4.17;;
4460;SDS011;2243;48.812;9.232;2023-06-14T14:05:33;5.03;;;4.63;;
4460;SDS011;2243;48.812;9.232;2023-06-14T14:08:04;5.10;;;4.80;;
4460;SDS011;2243;48.812;9.232;2023-06-14T14:10:36;7.73;;;4.87;;
4460;SDS011;2243;48.812;9.232;2023-06-14T14:13:07;5.90;;;4.73;;
4460;SDS011;2243;48.812;9.232;2023-06-14T14:15:38;11.93;;;4.93;;
4460;SDS011;2243;48.812;9.232;2023-06-14T14:18:09;4.80;;;4.20;;
4460;SDS011;2243;48.812;9.232;2023-06-14T14:20:40;5.10;;;4.23;;
4460;SDS011;2243;48.812;9.232;2023-06-14T14:23:11;8.00;;;4.97;;
4460;SDS011;2243;48.812;9.232;2023-06-14T14:25:42;6.00;;;5.07;;
4460;SDS011;2243;48.812;9.232;2023-06-14T14:28:13;4.17;;;3.70;;
4460;SDS011;2243;48.812;9.232;2023-06-14T14:30:46;4.73;;;4.20;;
4460;SDS011;2243;48.812;9.232;2023-06-14T14:33:17;4.47;;;4.27;;
4460;SDS011;2243;48.812;9.232;2023-06-14T14:35:48;10.67;;;4.50;;
4460;SDS011;2243;48.812;9.232;2023-06-14T14:38:19;5.20;;;4.80;;
4460;SDS011;2243;48.812;9.232;2023-06-14T14:40:52;6.17;;;4.80;;
4460;SDS011;2243;48.812;9.232;2023-06-14T14:43:23;4.40;;;4.10;;
4460;SDS011;2243;48.812;9.232;2023-06-14T14:45:54;4.17;;;3.87;;
4460;SDS011;2243;48.812;9.232;2023-06-14T14:48:25;4.60;;;4.30;;
4460;SDS011;2243;48.812;9.232;2023-06-14T14:50:55;7.00;;;4.80;;
4460;SDS011;2243;48.812;9.232;2023-06-14T14:53:27;5.23;;;4.23;;
4460;SDS011;2243;48.812;9.232;2023-06-14T14:55:58;3.90;;;3.70;;
4460;SDS011;2243;48.812;9.232;2023-06-14T14:58:30;4.50;;;4.17;;
4460;SDS011;2243;48.812;9.232;2023-06-14T15:01:01;4.80;;;3.90;;
4460;SDS011;2243;48.812;9.232;2023-06-14T15:03:32;4.40;;;4.00;;
4460;SDS011;2243;48.812;9.232;2023-06-14T15:06:23;4.10;;;3.70;;
4460;SDS011;2243;48.812;9.232;2023-06-14T15:08:53;4.27;;;4.07;;
4460;SDS011;2243;48.812;9.232;2023-06-14T15:11:24;4.27;;;3.97;;
4460;SDS011;2243;48.812;9.232;2023-06-14T15:13:56;7.53;;;4.73;;
4460;SDS011;2243;48.812;9.232;2023-06-14T15:16:27;4.57;;;4.17;;
4460;SDS011;2243;48.812;9.232;2023-06-14T15:18:58;6.40;;;3.63;;
4460;SDS011;2243;48.812;9.232;2023-06-14T15:21:29;4.23;;;3.97;;
4460;SDS011;2243;48.812;9.232;2023-06-14T15:24:00;4.23;;;3.77;;
4460;SDS011;2243;48.812;9.232;2023-06-14T15:26:31;4.47;;;4.17;;
4460;SDS011;2243;48.812;9.232;2023-06-14T15:29:02;4.50;;;4.10;;
4460;SDS011;2243;48.812;9.232;2023-06-14T15:31:33;4.43;;;3.50;;
4460;SDS011;2243;48.812;9.232;2023-06-14T15:34:04;6.03;;;4.30;;
4460;SDS011;2243;48.812;9.232;2023-06-14T15:36:35;4.23;;;4.00;;
4460;SDS011;2243;48.812;9.232;2023-06-14T15:39:06;6.80;;;4.10;;
4460;SDS011;2243;48.812;9.232;2023-06-14T15:41:37;4.73;;;4.33;;
4460;SDS011;2243;48.812;9.232;2023-06-14T15:44:08;4.50;;;4.10;;
4460;SDS011;2243;48.812;9.232;2023-06-14T15:46:40;4.60;;;4.20;;
4460;SDS011;2243;48.812;9.232;2023-06-14T15:49:12;4.93;;;4.03;;
4460;SDS011;2243;48.812;9.232;2023-06-14T15:51:43;5.03;;;4.63;;
4460;SDS011;2243;48.812;9.232;2023-06-14T15:54:14;6.20;;;5.03;;
4460;SDS011;2243;48.812;9.232;2023-06-14T15:56:45;4.20;;;3.90;;
4460;SDS011;2243;48.812;9.232;2023-06-14T15:59:16;4.63;;;4.33;;
4460;SDS011;2243;48.812;9.232;2023-06-14T16:01:47;4.97;;;4.07;;